createdAt,value
2022-07-28T00:01:47.186Z,17.80
2022-07-28T00:04:15.206Z,17.80
2022-07-28T00:06:43.100Z,17.80
2022-07-28T00:09:10.748Z,17.70
2022-07-28T00:11:54.395Z,17.70
2022-07-28T00:14:24.141Z,17.66
2022-07-28T00:16:52.119Z,17.60
2022-07-28T00:19:20.425Z,17.60
2022-07-28T00:21:48.162Z,17.50
2022-07-28T00:24:16.227Z,17.50
2022-07-28T00:26:46.631Z,17.50
2022-07-28T00:29:14.497Z,17.50
2022-07-28T00:31:42.285Z,17.50
2022-07-28T00:34:10.198Z,17.50
2022-07-28T00:36:38.308Z,17.50
2022-07-28T00:39:06.695Z,17.50
2022-07-28T00:41:34.359Z,17.44
2022-07-28T00:44:02.174Z,17.40
2022-07-28T00:46:30.025Z,17.40
2022-07-28T00:48:57.812Z,17.40
2022-07-28T00:51:27.468Z,17.40
2022-07-28T00:53:56.236Z,17.40
2022-07-28T00:56:24.475Z,17.40
2022-07-28T00:58:53.035Z,17.40
2022-07-28T01:01:21.925Z,17.40
2022-07-28T01:03:56.046Z,17.40
2022-07-28T01:06:51.012Z,17.40
2022-07-28T01:09:39.478Z,17.40
2022-07-28T01:12:45.429Z,17.40
2022-07-28T01:15:27.744Z,17.38
2022-07-28T01:18:06.941Z,17.30
2022-07-28T01:20:41.817Z,17.30
2022-07-28T01:23:12.171Z,17.30
2022-07-28T01:26:06.746Z,17.30
2022-07-28T01:29:11.513Z,17.30
2022-07-28T01:31:48.284Z,17.30
2022-07-28T01:34:30.780Z,17.24
2022-07-28T01:37:10.209Z,17.20
2022-07-28T01:39:42.742Z,17.20
2022-07-28T01:42:14.065Z,17.12
2022-07-28T01:44:46.349Z,17.10
2022-07-28T01:47:15.918Z,17.10
2022-07-28T01:49:47.649Z,17.10
2022-07-28T01:52:18.785Z,17.00
2022-07-28T01:54:49.613Z,17.00
2022-07-28T01:57:19.354Z,17.00
2022-07-28T01:59:49.741Z,17.00
2022-07-28T02:02:19.266Z,16.94
2022-07-28T02:04:50.384Z,16.98
2022-07-28T02:07:21.062Z,16.98
2022-07-28T02:09:50.237Z,16.90
2022-07-28T02:12:20.160Z,16.90
2022-07-28T02:14:50.707Z,16.90
2022-07-28T02:17:25.437Z,16.90
2022-07-28T02:19:54.546Z,16.80
2022-07-28T02:22:22.832Z,16.80
2022-07-28T02:24:56.549Z,16.78
2022-07-28T02:27:38.547Z,16.70
2022-07-28T02:30:16.589Z,16.68
2022-07-28T02:33:02.425Z,16.68
2022-07-28T02:36:07.343Z,16.60
2022-07-28T02:38:44.712Z,16.60
2022-07-28T02:41:25.825Z,16.56
2022-07-28T02:43:59.701Z,16.50
2022-07-28T02:46:38.436Z,16.50
2022-07-28T02:49:14.030Z,16.54
2022-07-28T02:51:45.401Z,16.60
2022-07-28T02:54:14.877Z,16.60
2022-07-28T02:56:53.544Z,16.60
2022-07-28T02:59:23.859Z,16.60
2022-07-28T03:01:53.320Z,16.60
2022-07-28T03:04:41.271Z,16.60
2022-07-28T03:07:10.883Z,16.60
2022-07-28T03:09:42.357Z,16.60
2022-07-28T03:12:10.791Z,16.60
2022-07-28T03:14:38.861Z,16.60
2022-07-28T03:17:06.941Z,16.52
2022-07-28T03:19:35.057Z,16.50
2022-07-28T03:22:02.832Z,16.50
2022-07-28T03:24:42.051Z,16.50
2022-07-28T03:27:27.209Z,16.50
2022-07-28T03:30:04.566Z,16.50
2022-07-28T03:32:38.410Z,16.50
2022-07-28T03:35:07.191Z,16.52
2022-07-28T03:38:00.168Z,16.60
2022-07-28T03:40:30.511Z,16.60
2022-07-28T03:43:03.584Z,16.60
2022-07-28T03:45:35.143Z,16.52
2022-07-28T03:48:04.592Z,16.58
2022-07-28T03:50:33.872Z,16.60
2022-07-28T03:53:04.845Z,16.60
2022-07-28T03:55:32.441Z,16.60
2022-07-28T03:58:00.856Z,16.60
2022-07-28T04:00:29.023Z,16.60
2022-07-28T04:02:56.709Z,16.60
2022-07-28T04:05:24.416Z,16.60
2022-07-28T04:07:52.023Z,16.60
2022-07-28T04:10:19.669Z,16.60
2022-07-28T04:12:55.035Z,16.60
2022-07-28T04:15:25.512Z,16.60
2022-07-28T04:17:55.898Z,16.60
2022-07-28T04:20:26.579Z,16.60
2022-07-28T04:22:55.770Z,16.60
2022-07-28T04:25:27.371Z,16.60
2022-07-28T04:27:55.940Z,16.60
2022-07-28T04:30:25.260Z,16.60
2022-07-28T04:32:55.337Z,16.60
2022-07-28T04:35:25.051Z,16.60
2022-07-28T04:37:55.798Z,16.70
2022-07-28T04:40:23.465Z,16.70
2022-07-28T04:42:51.466Z,16.80
2022-07-28T04:45:19.394Z,16.80
2022-07-28T04:47:46.989Z,16.90
2022-07-28T04:50:15.975Z,16.90
2022-07-28T04:52:43.565Z,16.94
2022-07-28T04:55:11.267Z,17.00
2022-07-28T04:57:40.056Z,17.10
2022-07-28T05:00:13.806Z,17.10
2022-07-28T05:02:44.269Z,17.20
2022-07-28T05:05:13.033Z,17.30
2022-07-28T05:07:41.805Z,17.30
2022-07-28T05:10:12.613Z,17.40
2022-07-28T05:12:40.426Z,17.40
2022-07-28T05:15:09.673Z,17.48
2022-07-28T05:17:37.390Z,17.50
2022-07-28T05:20:08.527Z,17.60
2022-07-28T05:22:45.433Z,17.62
2022-07-28T05:25:18.440Z,17.70
2022-07-28T05:27:47.634Z,17.80
2022-07-28T05:30:17.075Z,17.90
2022-07-28T05:32:45.590Z,17.90
2022-07-28T05:35:14.044Z,18.00
2022-07-28T05:37:41.786Z,18.00
2022-07-28T05:40:15.476Z,18.10
2022-07-28T05:42:44.795Z,18.16
2022-07-28T05:45:16.615Z,18.26
2022-07-28T05:47:52.149Z,18.38
2022-07-28T05:50:22.442Z,18.50
2022-07-28T05:52:51.262Z,18.60
2022-07-28T05:55:19.743Z,18.78
2022-07-28T05:57:47.632Z,18.90
2022-07-28T06:00:19.295Z,19.00
2022-07-28T06:02:49.907Z,19.10
2022-07-28T06:05:21.104Z,19.20
2022-07-28T06:07:51.250Z,19.38
2022-07-28T06:10:22.503Z,19.50
2022-07-28T06:12:57.817Z,19.56
2022-07-28T06:15:28.136Z,19.60
2022-07-28T06:17:56.120Z,19.70
2022-07-28T06:20:27.833Z,19.80
2022-07-28T06:22:56.471Z,19.88
2022-07-28T06:25:29.614Z,19.90
2022-07-28T06:28:00.764Z,20.00
2022-07-28T06:30:29.363Z,20.10
2022-07-28T06:32:58.585Z,20.20
2022-07-28T06:35:26.538Z,20.30
2022-07-28T06:37:55.109Z,20.30
2022-07-28T06:40:23.004Z,20.46
2022-07-28T06:42:51.857Z,20.60
2022-07-28T06:45:21.821Z,20.60
2022-07-28T06:47:50.600Z,20.64
2022-07-28T06:50:26.048Z,20.76
2022-07-28T06:52:58.879Z,20.80
2022-07-28T06:55:34.816Z,20.90
2022-07-28T06:58:04.383Z,20.94
2022-07-28T07:00:32.384Z,21.04
2022-07-28T07:03:00.887Z,21.10
2022-07-28T07:05:32.732Z,21.10
2022-07-28T07:08:00.902Z,21.10
2022-07-28T07:10:28.610Z,21.18
2022-07-28T07:12:56.260Z,21.16
2022-07-28T07:15:23.934Z,21.30
2022-07-28T07:17:52.237Z,21.30
2022-07-28T07:20:20.344Z,21.40
2022-07-28T07:22:48.956Z,21.40
2022-07-28T07:25:18.914Z,21.50
2022-07-28T07:27:47.539Z,21.58
2022-07-28T07:30:16.929Z,21.60
2022-07-28T07:32:45.224Z,21.70
2022-07-28T07:35:13.273Z,21.80
2022-07-28T07:37:41.485Z,21.90
2022-07-28T07:40:09.993Z,21.90
2022-07-28T07:42:37.986Z,21.90
2022-07-28T07:45:06.202Z,21.82
2022-07-28T07:47:33.821Z,21.86
2022-07-28T07:50:04.152Z,21.80
2022-07-28T07:52:32.283Z,21.80
2022-07-28T07:55:00.090Z,21.84
2022-07-28T07:57:27.936Z,21.90
2022-07-28T07:59:55.589Z,21.90
2022-07-28T08:02:23.268Z,21.90
2022-07-28T08:04:51.034Z,21.90
2022-07-28T08:07:18.926Z,21.92
2022-07-28T08:09:50.059Z,22.02
2022-07-28T08:12:17.688Z,22.10
2022-07-28T08:14:54.401Z,22.18
2022-07-28T08:17:26.504Z,22.20
2022-07-28T08:19:55.913Z,22.20
2022-07-28T08:22:24.141Z,22.30
2022-07-28T08:24:52.276Z,22.32
2022-07-28T08:27:20.034Z,22.40
2022-07-28T08:29:47.770Z,22.40
2022-07-28T08:32:15.476Z,22.50
2022-07-28T08:34:43.415Z,22.50
2022-07-28T08:37:11.215Z,22.50
2022-07-28T08:39:38.885Z,22.60
2022-07-28T08:42:50.771Z,22.60
2022-07-28T08:45:20.813Z,22.60
2022-07-28T08:48:07.839Z,22.60
2022-07-28T08:50:39.742Z,22.60
2022-07-28T08:53:08.639Z,22.60
2022-07-28T08:55:37.881Z,22.60
2022-07-28T08:58:07.336Z,22.66
2022-07-28T09:00:35.379Z,22.68
2022-07-28T09:03:04.800Z,22.62
2022-07-28T09:05:33.051Z,22.60
2022-07-28T09:08:02.172Z,22.60
2022-07-28T09:10:30.137Z,22.68
2022-07-28T09:12:57.950Z,22.70
2022-07-28T09:15:25.896Z,22.70
2022-07-28T09:17:53.537Z,22.70
2022-07-28T09:20:21.844Z,22.70
2022-07-28T09:22:59.315Z,22.80
2022-07-28T09:25:29.656Z,22.80
2022-07-28T09:28:10.656Z,22.90
2022-07-28T09:30:47.316Z,22.90
2022-07-28T09:33:42.175Z,22.90
2022-07-28T09:36:16.400Z,22.90
2022-07-28T09:38:46.165Z,22.90
2022-07-28T09:41:14.965Z,22.90
2022-07-28T09:43:46.308Z,22.90
2022-07-28T09:46:22.501Z,22.88
2022-07-28T09:48:56.874Z,22.80
2022-07-28T09:51:29.267Z,22.80
2022-07-28T09:54:16.312Z,22.70
2022-07-28T09:56:46.085Z,22.70
2022-07-28T09:59:15.066Z,22.70
2022-07-28T10:01:58.313Z,22.80
2022-07-28T10:04:41.097Z,22.80
2022-07-28T10:07:17.088Z,22.80
2022-07-28T10:10:00.257Z,22.90
2022-07-28T10:12:31.546Z,22.90
2022-07-28T10:15:31.883Z,22.90
2022-07-28T10:17:59.823Z,22.90
2022-07-28T10:20:29.030Z,22.86
2022-07-28T10:23:05.318Z,22.80
2022-07-28T10:25:35.497Z,22.80
2022-07-28T10:28:05.252Z,22.90
2022-07-28T10:30:40.098Z,22.90
2022-07-28T10:33:14.877Z,22.90
2022-07-28T10:35:55.494Z,22.90
2022-07-28T10:38:30.396Z,22.98
2022-07-28T10:41:03.608Z,22.90
2022-07-28T10:43:32.657Z,22.90
2022-07-28T10:46:06.286Z,22.90
2022-07-28T10:48:38.746Z,22.98
2022-07-28T10:51:07.249Z,23.02
2022-07-28T10:53:50.841Z,23.10
2022-07-28T10:56:49.051Z,23.12
2022-07-28T10:59:58.319Z,23.20
2022-07-28T11:03:00.924Z,23.20
2022-07-28T11:05:34.456Z,23.30
2022-07-28T11:08:28.943Z,23.40
2022-07-28T11:11:07.497Z,23.50
2022-07-28T11:13:41.094Z,23.50
2022-07-28T11:16:15.784Z,23.50
2022-07-28T11:19:02.049Z,23.52
2022-07-28T11:21:39.689Z,23.60
2022-07-28T11:24:12.982Z,23.60
2022-07-28T11:26:45.628Z,23.50
2022-07-28T11:29:13.860Z,23.50
2022-07-28T11:31:44.492Z,23.50
2022-07-28T11:34:23.805Z,23.50
2022-07-28T11:37:15.185Z,23.50
2022-07-28T11:39:43.999Z,23.50
2022-07-28T11:42:32.358Z,23.60
2022-07-28T11:45:35.096Z,23.60
2022-07-28T11:48:23.087Z,23.60
2022-07-28T11:51:02.952Z,23.62
2022-07-28T11:53:51.531Z,23.70
2022-07-28T11:56:37.724Z,23.70
2022-07-28T11:59:07.827Z,23.78
2022-07-28T12:01:36.926Z,23.80
2022-07-28T12:04:17.556Z,23.82
2022-07-28T12:06:51.516Z,23.90
2022-07-28T12:09:25.621Z,23.90
2022-07-28T12:11:56.057Z,23.90
2022-07-28T12:14:29.322Z,23.90
2022-07-28T12:16:57.017Z,23.90
2022-07-28T12:19:32.082Z,24.00
2022-07-28T12:22:00.892Z,24.00
2022-07-28T12:24:30.914Z,24.10
2022-07-28T12:27:04.086Z,24.10
2022-07-28T12:29:36.029Z,24.18
2022-07-28T12:32:09.736Z,24.20
2022-07-28T12:34:40.686Z,24.16
2022-07-28T12:37:10.044Z,24.20
2022-07-28T12:39:43.197Z,24.10
2022-07-28T12:42:13.036Z,24.10
2022-07-28T12:44:50.098Z,24.10
2022-07-28T12:47:28.165Z,24.10
2022-07-28T12:50:14.243Z,24.12
2022-07-28T12:53:01.026Z,24.12
2022-07-28T12:55:30.758Z,24.16
2022-07-28T12:57:59.965Z,24.20
2022-07-28T13:00:37.248Z,24.20
2022-07-28T13:03:28.873Z,24.30
2022-07-28T13:06:03.097Z,24.30
2022-07-28T13:08:47.549Z,24.22
2022-07-28T13:14:04.925Z,24.10
2022-07-28T13:16:34.571Z,24.10
2022-07-28T13:19:05.571Z,24.04
2022-07-28T13:21:56.996Z,24.00
2022-07-28T13:24:29.453Z,24.10
2022-07-28T13:26:59.503Z,24.18
2022-07-28T13:29:27.419Z,24.20
2022-07-28T13:31:55.529Z,24.20
2022-07-28T13:34:23.562Z,24.20
2022-07-28T13:36:52.520Z,24.24
2022-07-28T13:39:20.402Z,24.28
2022-07-28T13:41:56.479Z,24.20
2022-07-28T13:44:30.772Z,24.20
2022-07-28T13:47:00.631Z,24.20
2022-07-28T13:49:31.743Z,24.20
2022-07-28T13:52:01.677Z,24.20
2022-07-28T13:54:29.771Z,24.20
2022-07-28T13:57:14.095Z,24.20
2022-07-28T13:59:43.989Z,24.20
2022-07-28T14:02:15.136Z,24.30
2022-07-28T14:04:50.268Z,24.30
2022-07-28T14:07:21.082Z,24.30
2022-07-28T14:09:51.313Z,24.30
2022-07-28T14:12:19.256Z,24.30
2022-07-28T14:14:47.790Z,24.30
2022-07-28T14:20:15.658Z,24.30
2022-07-28T14:22:46.625Z,24.30
2022-07-28T14:25:20.654Z,24.30
2022-07-28T14:27:51.510Z,24.30
2022-07-28T14:30:22.405Z,24.30
2022-07-28T14:32:50.098Z,24.30
2022-07-28T14:35:18.812Z,24.30
2022-07-28T14:38:28.549Z,24.30
2022-07-28T14:40:39.487Z,24.30
2022-07-28T14:43:08.880Z,24.30
2022-07-28T14:46:00.695Z,24.30
2022-07-28T14:48:25.117Z,24.30
2022-07-28T14:50:55.304Z,24.30
2022-07-28T14:53:23.660Z,24.28
2022-07-28T14:55:51.338Z,24.20
2022-07-28T14:58:19.162Z,24.20
2022-07-28T15:00:46.783Z,24.20
2022-07-28T15:03:14.615Z,24.18
2022-07-28T15:05:42.328Z,24.20
2022-07-28T15:08:10.075Z,24.20
2022-07-28T15:10:37.853Z,24.20
2022-07-28T15:13:05.482Z,24.20
2022-07-28T15:15:34.434Z,24.20
2022-07-28T15:18:02.777Z,24.20
2022-07-28T15:20:31.485Z,24.12
2022-07-28T15:22:59.149Z,24.10
2022-07-28T15:25:26.826Z,24.10
2022-07-28T15:27:54.506Z,24.10
2022-07-28T15:30:22.172Z,24.10
2022-07-28T15:32:55.751Z,24.10
2022-07-28T15:35:25.987Z,24.10
2022-07-28T15:37:55.029Z,24.10
2022-07-28T15:40:23.288Z,24.10
2022-07-28T15:42:51.379Z,24.10
2022-07-28T15:45:19.148Z,24.10
2022-07-28T15:47:47.842Z,24.10
2022-07-28T15:50:15.508Z,24.10
2022-07-28T15:52:43.223Z,24.10
2022-07-28T15:55:10.840Z,24.10
2022-07-28T15:57:38.782Z,24.10
2022-07-28T16:00:08.012Z,24.00
2022-07-28T16:02:35.711Z,24.00
2022-07-28T16:05:03.893Z,24.00
2022-07-28T16:07:33.337Z,23.94
2022-07-28T16:10:03.055Z,23.90
2022-07-28T16:12:31.185Z,23.90
2022-07-28T16:14:59.681Z,23.90
2022-07-28T16:17:27.398Z,23.90
2022-07-28T16:19:57.376Z,23.90
2022-07-28T16:22:25.377Z,23.88
2022-07-28T16:24:53.035Z,23.80
2022-07-28T16:27:20.744Z,23.80
2022-07-28T16:29:49.507Z,23.80
2022-07-28T16:32:17.234Z,23.80
2022-07-28T16:34:44.987Z,23.70
2022-07-28T16:37:17.403Z,23.70
2022-07-28T16:39:48.499Z,23.70
2022-07-28T16:42:16.994Z,23.70
2022-07-28T16:44:44.724Z,23.70
2022-07-28T16:47:12.423Z,23.70
2022-07-28T16:49:45.337Z,23.70
2022-07-28T16:52:15.306Z,23.70
2022-07-28T16:54:43.097Z,23.70
2022-07-28T16:57:10.760Z,23.70
2022-07-28T16:59:47.806Z,23.62
2022-07-28T17:02:19.090Z,23.60
2022-07-28T17:04:47.412Z,23.60
2022-07-28T17:07:15.234Z,23.60
2022-07-28T17:09:42.983Z,23.60
2022-07-28T17:12:11.007Z,23.60
2022-07-28T17:14:38.613Z,23.50
2022-07-28T17:17:06.598Z,23.50
2022-07-28T17:19:35.053Z,23.50
2022-07-28T17:22:06.933Z,23.50
2022-07-28T17:24:34.894Z,23.50
2022-07-28T17:27:36.705Z,23.42
2022-07-28T17:29:50.113Z,23.40
2022-07-28T17:32:17.839Z,23.40
2022-07-28T17:34:45.608Z,23.38
2022-07-28T17:37:13.170Z,23.36
2022-07-28T17:39:40.869Z,23.30
2022-07-28T17:42:08.519Z,23.30
2022-07-28T17:44:36.216Z,23.30
2022-07-28T17:47:03.915Z,23.30
2022-07-28T17:49:31.587Z,23.24
2022-07-28T17:52:00.024Z,23.20
2022-07-28T17:54:47.731Z,23.20
2022-07-28T17:57:18.050Z,23.20
2022-07-28T17:59:51.849Z,23.14
2022-07-28T18:02:20.117Z,23.10
2022-07-28T18:04:49.293Z,23.08
2022-07-28T18:07:17.001Z,23.00
2022-07-28T18:09:44.652Z,23.00
2022-07-28T18:12:12.358Z,22.90
2022-07-28T18:14:40.028Z,22.90
2022-07-28T18:17:07.887Z,22.80
2022-07-28T18:19:35.825Z,22.80
2022-07-28T18:22:03.852Z,22.70
2022-07-28T18:24:32.012Z,22.70
2022-07-28T18:26:59.713Z,22.60
2022-07-28T18:29:38.119Z,22.60
2022-07-28T18:32:09.852Z,22.50
2022-07-28T18:34:40.456Z,22.50
2022-07-28T18:37:08.207Z,22.40
2022-07-28T18:39:35.910Z,22.40
2022-07-28T18:42:03.908Z,22.30
2022-07-28T18:44:31.668Z,22.30
2022-07-28T18:47:00.001Z,22.20
2022-07-28T18:49:27.986Z,22.16
2022-07-28T18:51:56.123Z,22.10
2022-07-28T18:54:27.502Z,22.10
2022-07-28T18:56:56.649Z,22.00
2022-07-28T18:59:25.164Z,22.00
2022-07-28T19:01:52.873Z,21.90
2022-07-28T19:04:20.620Z,21.90
2022-07-28T19:06:48.310Z,21.80
2022-07-28T19:09:16.035Z,21.80
2022-07-28T19:11:46.329Z,21.70
2022-07-28T19:14:16.139Z,21.70
2022-07-28T19:16:44.434Z,21.60
2022-07-28T19:19:13.363Z,21.60
2022-07-28T19:21:43.418Z,21.50
2022-07-28T19:24:14.343Z,21.50
2022-07-28T19:26:45.130Z,21.40
2022-07-28T19:29:13.677Z,21.40
2022-07-28T19:31:41.527Z,21.36
2022-07-28T19:34:09.946Z,21.30
2022-07-28T19:36:41.428Z,21.30
2022-07-28T19:39:09.329Z,21.20
2022-07-28T19:41:37.339Z,21.12
2022-07-28T19:44:05.206Z,21.10
2022-07-28T19:46:33.137Z,21.00
2022-07-28T19:49:00.842Z,20.98
2022-07-28T19:51:28.554Z,20.90
2022-07-28T19:53:59.459Z,20.90
2022-07-28T19:56:31.123Z,20.80
2022-07-28T19:58:59.584Z,20.80
2022-07-28T20:01:27.410Z,20.70
2022-07-28T20:04:02.279Z,20.64
2022-07-28T20:06:33.540Z,20.60
2022-07-28T20:09:03.217Z,20.50
2022-07-28T20:11:32.929Z,20.50
2022-07-28T20:14:01.621Z,20.40
2022-07-28T20:16:29.615Z,20.40
2022-07-28T20:18:57.489Z,20.34
2022-07-28T20:21:26.414Z,20.30
2022-07-28T20:23:57.031Z,20.30
2022-07-28T20:26:26.726Z,20.20
2022-07-28T20:28:58.326Z,20.20
2022-07-28T20:31:26.026Z,20.20
2022-07-28T20:33:53.878Z,20.18
2022-07-28T20:36:23.942Z,20.10
2022-07-28T20:38:57.319Z,20.10
2022-07-28T20:41:24.939Z,20.10
2022-07-28T20:44:18.370Z,20.10
2022-07-28T20:46:40.997Z,20.00
2022-07-28T20:49:17.216Z,20.00
2022-07-28T20:51:50.901Z,20.00
2022-07-28T20:54:19.146Z,20.00
2022-07-28T20:56:47.267Z,20.00
2022-07-28T20:59:14.869Z,19.92
2022-07-28T21:01:42.835Z,19.90
2022-07-28T21:04:11.504Z,19.90
2022-07-28T21:06:39.737Z,19.80
2022-07-28T21:09:19.239Z,19.80
2022-07-28T21:11:46.820Z,19.72
2022-07-28T21:14:14.704Z,19.70
2022-07-28T21:16:42.671Z,19.60
2022-07-28T21:19:10.397Z,19.60
2022-07-28T21:21:39.024Z,19.50
2022-07-28T21:24:07.136Z,19.44
2022-07-28T21:26:34.799Z,19.40
2022-07-28T21:29:12.346Z,19.40
2022-07-28T21:32:03.621Z,19.34
2022-07-28T21:34:31.234Z,19.32
2022-07-28T21:36:59.381Z,19.30
2022-07-28T21:39:27.104Z,19.30
2022-07-28T21:41:54.741Z,19.20
2022-07-28T21:44:22.576Z,19.20
2022-07-28T21:46:50.488Z,19.20
2022-07-28T21:49:18.184Z,19.20
2022-07-28T21:51:47.078Z,19.20
2022-07-28T21:54:15.169Z,19.20
2022-07-28T21:56:43.047Z,19.18
2022-07-28T21:59:10.817Z,19.14
2022-07-28T22:01:38.732Z,19.10
2022-07-28T22:04:06.689Z,19.10
2022-07-28T22:06:34.323Z,19.10
2022-07-28T22:09:02.005Z,19.10
2022-07-28T22:11:30.449Z,19.10
2022-07-28T22:13:58.028Z,19.10
2022-07-28T22:16:25.711Z,19.10
2022-07-28T22:18:53.371Z,19.10
2022-07-28T22:21:21.022Z,19.10
2022-07-28T22:23:48.787Z,19.10
2022-07-28T22:26:16.417Z,19.10
2022-07-28T22:28:44.153Z,19.10
2022-07-28T22:31:11.816Z,19.10
2022-07-28T22:33:40.331Z,19.10
2022-07-28T22:36:08.984Z,19.10
2022-07-28T22:38:37.390Z,19.10
2022-07-28T22:41:04.993Z,19.10
2022-07-28T22:43:35.988Z,19.02
2022-07-28T22:46:03.708Z,19.00
2022-07-28T22:48:31.389Z,19.00
2022-07-28T22:50:59.021Z,19.00
2022-07-28T22:53:26.889Z,19.00
2022-07-28T22:55:54.556Z,19.00
2022-07-28T22:58:22.176Z,19.00
2022-07-28T23:00:49.894Z,19.00
2022-07-28T23:03:19.549Z,19.00
2022-07-28T23:05:47.463Z,19.00
2022-07-28T23:08:18.370Z,19.00
2022-07-28T23:10:46.033Z,19.00
2022-07-28T23:13:13.688Z,19.00
2022-07-28T23:15:41.745Z,19.00
2022-07-28T23:18:11.261Z,19.00
2022-07-28T23:20:40.147Z,19.00
2022-07-28T23:23:08.099Z,19.00
2022-07-28T23:25:39.350Z,19.00
2022-07-28T23:28:07.756Z,19.00
2022-07-28T23:30:35.511Z,19.00
2022-07-28T23:33:04.317Z,19.00
2022-07-28T23:35:32.312Z,19.00
2022-07-28T23:38:00.070Z,18.90
2022-07-28T23:40:27.845Z,18.90
2022-07-28T23:42:55.448Z,18.90
2022-07-28T23:45:23.408Z,18.90
2022-07-28T23:47:53.936Z,18.88
2022-07-28T23:50:26.655Z,18.86
2022-07-28T23:52:54.353Z,18.88
2022-07-28T23:55:22.117Z,18.80
2022-07-28T23:57:49.741Z,18.80
